createdAt,value
2023-02-18T00:12:25.572Z,2.17
2023-02-18T00:27:27.553Z,3.08
2023-02-18T00:42:29.500Z,4.18
2023-02-18T00:57:31.541Z,2.70
2023-02-18T01:12:33.590Z,2.65
2023-02-18T01:27:35.780Z,2.40
2023-02-18T01:42:37.750Z,1.75
2023-02-18T01:57:39.665Z,2.65
2023-02-18T02:13:07.372Z,4.15
2023-02-18T02:28:49.106Z,4.87
2023-02-18T02:44:24.461Z,4.45
2023-02-18T02:59:27.278Z,2.60
2023-02-18T03:14:57.482Z,3.00
2023-02-18T03:30:10.934Z,4.50
2023-02-18T03:45:12.882Z,2.53
2023-02-18T04:00:15.073Z,2.70
2023-02-18T04:15:17.088Z,3.58
2023-02-18T04:30:19.277Z,4.10
2023-02-18T04:45:21.205Z,3.95
2023-02-18T05:00:23.228Z,3.38
2023-02-18T05:15:25.461Z,3.67
2023-02-18T05:30:27.380Z,2.92
2023-02-18T05:45:29.329Z,2.97
2023-02-18T06:00:32.148Z,3.13
2023-02-18T06:15:34.244Z,2.58
2023-02-18T06:30:36.392Z,1.42
2023-02-18T06:45:39.565Z,1.98
2023-02-18T07:00:41.761Z,4.75
2023-02-18T07:15:43.751Z,3.40
2023-02-18T07:30:45.689Z,2.70
2023-02-18T07:45:48.135Z,3.65
2023-02-18T08:00:50.739Z,4.18
2023-02-18T08:15:58.042Z,3.00
2023-02-18T08:31:00.373Z,5.43
2023-02-18T08:46:02.691Z,5.30
2023-02-18T09:01:09.862Z,3.78
2023-02-18T09:16:18.537Z,3.40
2023-02-18T09:31:23.362Z,3.40
2023-02-18T09:46:43.104Z,3.22
2023-02-18T10:01:48.056Z,4.65
2023-02-18T10:16:52.329Z,3.45
2023-02-18T10:32:08.477Z,3.95
2023-02-18T10:47:35.445Z,5.88
2023-02-18T11:02:38.363Z,4.47
2023-02-18T11:17:41.115Z,5.18
2023-02-18T11:32:44.868Z,4.47
2023-02-18T11:48:00.431Z,5.97
2023-02-18T12:03:08.487Z,7.53
2023-02-18T12:18:48.474Z,12.47
2023-02-18T12:33:59.189Z,8.60
2023-02-18T12:49:07.391Z,7.30
2023-02-18T13:04:27.970Z,7.97
2023-02-18T13:19:44.357Z,10.85
2023-02-18T13:35:00.452Z,17.05
2023-02-18T13:50:25.641Z,13.73
2023-02-18T14:05:40.385Z,12.45
2023-02-18T14:20:51.436Z,12.93
2023-02-18T14:36:06.179Z,19.88
2023-02-18T14:51:08.865Z,20.55
2023-02-18T15:06:35.098Z,17.70
2023-02-18T15:21:41.072Z,16.92
2023-02-18T15:36:43.011Z,4.28
2023-02-18T15:51:45.277Z,2.35
2023-02-18T16:06:50.630Z,5.30
2023-02-18T16:21:52.745Z,6.47
2023-02-18T16:37:14.070Z,3.53
2023-02-18T16:52:18.087Z,4.43
2023-02-18T17:07:19.998Z,3.17
2023-02-18T17:22:21.959Z,4.28
2023-02-18T17:37:23.879Z,1.88
2023-02-18T17:52:31.090Z,2.50
2023-02-18T18:07:33.102Z,2.88
2023-02-18T18:22:35.153Z,2.80
2023-02-18T18:37:37.141Z,3.55
2023-02-18T18:52:40.509Z,3.47
2023-02-18T19:07:42.455Z,4.15
2023-02-18T19:22:44.477Z,5.75
2023-02-18T19:37:47.120Z,8.70
2023-02-18T19:52:55.337Z,2.53
2023-02-18T20:07:57.436Z,3.00
2023-02-18T20:22:59.449Z,3.03
2023-02-18T20:38:01.468Z,3.67
2023-02-18T20:53:03.525Z,6.30
2023-02-18T21:08:05.532Z,5.25
2023-02-18T21:23:08.244Z,3.28
2023-02-18T21:38:10.628Z,4.30
2023-02-18T21:53:12.707Z,3.60
2023-02-18T22:08:14.653Z,3.53
2023-02-18T22:23:18.727Z,7.38
2023-02-18T22:38:20.646Z,4.93
2023-02-18T22:53:22.588Z,5.00
2023-02-18T23:08:24.955Z,8.60
2023-02-18T23:23:26.876Z,9.77
2023-02-18T23:38:28.839Z,7.65
2023-02-18T23:53:33.046Z,5.20
